Time;durP1;ratioP1;P1;durP2;ratioP2;P2;SDS_P1;SDS_P2;PMS_P1;PMS_P2;Temp;Humidity;BMP_temperature;BMP_pressure;BME280_temperature;BME280_humidity;BME280_pressure;Samples;Min_cycle;Max_cycle;Signal;HPM_P1;HPM_P2
2022/08/21 04:01:58;;;;;;;36.20;27.90;;;16.30;96.30;;;;;;5310951;23;20504;-79
2022/08/21 04:04:24;;;;;;;36.90;26.37;;;16.30;96.30;;;;;;4994581;28;20495;-79
2022/08/21 04:06:50;;;;;;;39.67;28.97;;;16.30;96.30;;;;;;4995830;28;20516;-79
2022/08/21 04:09:16;;;;;;;34.87;28.77;;;16.30;96.30;;;;;;4978889;28;20961;-79
2022/08/21 04:11:42;;;;;;;35.53;27.73;;;16.30;96.30;;;;;;4984264;28;20194;-79
2022/08/21 04:14:08;;;;;;;39.60;27.93;;;16.30;96.30;;;;;;4961479;28;20417;-78
2022/08/21 04:16:34;;;;;;;39.13;29.73;;;16.30;96.30;;;;;;4966554;28;20182;-78
2022/08/21 04:19:01;;;;;;;35.27;29.10;;;16.30;96.30;;;;;;4979588;28;20417;-78
2022/08/21 04:21:26;;;;;;;35.40;27.87;;;16.30;96.30;;;;;;4976222;28;20218;-78
2022/08/21 04:23:54;;;;;;;36.50;28.27;;;16.30;96.30;;;;;;4976183;28;20413;-78
2022/08/21 04:26:19;;;;;;;35.73;27.40;;;16.30;96.30;;;;;;4958938;28;20182;-77
2022/08/21 04:28:45;;;;;;;36.00;27.93;;;16.30;96.30;;;;;;4959061;28;21035;-79
2022/08/21 04:31:11;;;;;;;38.17;26.83;;;16.30;96.30;;;;;;4976892;28;20202;-78
2022/08/21 04:33:36;;;;;;;32.70;25.10;;;16.30;96.30;;;;;;4976827;28;20635;-79
2022/08/21 04:36:02;;;;;;;39.53;27.57;;;16.30;96.30;;;;;;4977177;28;20602;-79
2022/08/21 04:38:28;;;;;;;32.60;26.60;;;16.30;96.30;;;;;;4977005;28;20183;-79
2022/08/21 04:40:53;;;;;;;32.03;24.80;;;16.30;96.30;;;;;;4976791;28;20929;-79
2022/08/21 04:43:21;;;;;;;27.30;24.03;;;16.30;96.30;;;;;;4976867;28;20232;-78
2022/08/21 04:45:49;;;;;;;32.67;24.30;;;16.20;96.30;;;;;;4959855;28;20737;-79
2022/08/21 04:48:17;;;;;;;30.90;23.50;;;16.20;96.30;;;;;;4977041;28;20429;-79
2022/08/21 04:50:55;;;;;;;31.20;24.23;;;16.30;96.30;;;;;;4977221;28;20529;-78
2022/08/21 04:53:35;;;;;;;26.80;23.83;;;16.30;96.30;;;;;;4977546;28;20425;-80
2022/08/21 04:56:08;;;;;;;28.17;23.87;;;16.30;96.30;;;;;;4977727;28;20413;-80
2022/08/21 04:58:35;;;;;;;25.63;20.97;;;16.30;96.30;;;;;;4977611;28;20413;-79
2022/08/21 05:01:03;;;;;;;30.63;22.67;;;16.30;96.30;;;;;;4977315;28;20453;-78
2022/08/21 05:03:31;;;;;;;25.80;21.63;;;16.40;96.30;;;;;;4959966;28;20434;-79
2022/08/21 05:05:57;;;;;;;27.10;23.20;;;16.40;96.30;;;;;;4977435;28;20902;-80
2022/08/21 05:08:25;;;;;;;24.83;21.97;;;16.50;96.30;;;;;;4976842;28;20463;-79
2022/08/21 05:10:51;;;;;;;26.07;22.13;;;16.50;96.30;;;;;;4981286;28;20449;-76
2022/08/21 05:13:17;;;;;;;26.33;21.60;;;16.60;96.30;;;;;;4975524;28;20414;-77
2022/08/21 05:15:43;;;;;;;25.60;22.90;;;16.60;96.30;;;;;;4975117;28;20167;-77
2022/08/21 05:18:09;;;;;;;25.00;21.40;;;16.70;96.30;;;;;;4975133;28;20457;-77
2022/08/21 05:20:35;;;;;;;24.93;20.73;;;16.70;96.30;;;;;;4975284;28;20190;-78
2022/08/21 05:23:07;;;;;;;30.97;23.40;;;16.80;96.30;;;;;;4975303;28;20500;-77
2022/08/21 05:25:33;;;;;;;23.67;21.20;;;16.80;96.30;;;;;;4975232;28;20402;-77
2022/08/21 05:27:58;;;;;;;26.43;20.97;;;16.80;96.30;;;;;;4974880;28;20811;-77
2022/08/21 05:30:24;;;;;;;23.50;20.73;;;16.80;96.30;;;;;;4975139;28;20217;-80
2022/08/21 05:32:56;;;;;;;24.10;19.90;;;16.90;96.30;;;;;;4975107;28;20186;-76
2022/08/21 05:35:22;;;;;;;31.23;22.30;;;17.00;96.30;;;;;;4975137;28;20650;-77
2022/08/21 05:37:47;;;;;;;22.70;19.47;;;17.00;96.30;;;;;;4974968;28;20464;-83
2022/08/21 05:40:13;;;;;;;24.97;19.77;;;17.10;96.30;;;;;;4974999;28;20232;-79
2022/08/21 05:42:39;;;;;;;20.30;18.20;;;17.20;96.30;;;;;;4974954;28;20197;-77
2022/08/21 05:45:05;;;;;;;26.00;20.07;;;17.10;96.30;;;;;;4971114;28;20421;-78
2022/08/21 05:47:30;;;;;;;22.20;19.90;;;17.20;96.30;;;;;;4966784;28;20187;-79
2022/08/21 05:49:56;;;;;;;21.30;18.97;;;17.30;96.30;;;;;;4958041;28;20575;-77
2022/08/21 05:52:22;;;;;;;25.80;19.90;;;17.40;96.30;;;;;;4974708;28;20205;-77
2022/08/21 05:54:47;;;;;;;23.63;19.57;;;17.60;96.30;;;;;;4974789;28;20178;-78
2022/08/21 05:57:13;;;;;;;20.07;17.97;;;17.70;96.30;;;;;;4957445;28;20179;-77
2022/08/21 05:59:38;;;;;;;25.70;18.20;;;17.90;96.30;;;;;;4968581;28;20619;-78
2022/08/21 06:02:04;;;;;;;24.17;18.57;;;18.10;96.30;;;;;;4959457;28;20218;-78
2022/08/21 06:04:30;;;;;;;19.07;17.07;;;18.30;96.30;;;;;;4956114;29;20185;-80
2022/08/21 06:06:55;;;;;;;22.00;18.47;;;18.50;96.30;;;;;;4955340;29;20706;-78
2022/08/21 06:09:21;;;;;;;20.43;15.10;;;18.70;96.30;;;;;;4960993;28;20740;-78
2022/08/21 06:11:46;;;;;;;17.63;14.93;;;18.80;96.30;;;;;;4974259;28;20670;-78
2022/08/21 06:14:16;;;;;;;18.60;13.80;;;18.70;96.30;;;;;;4974359;28;20171;-79
2022/08/21 06:16:42;;;;;;;15.63;13.93;;;18.70;96.30;;;;;;4974405;28;20177;-78
2022/08/21 06:19:07;;;;;;;14.70;12.87;;;18.80;96.30;;;;;;4974027;28;20413;-78
2022/08/21 06:21:33;;;;;;;14.70;13.17;;;18.90;96.30;;;;;;4974212;28;20237;-78
2022/08/21 06:23:58;;;;;;;19.40;14.47;;;19.00;96.30;;;;;;4974192;28;20541;-79
2022/08/21 06:26:24;;;;;;;15.50;13.10;;;19.00;96.30;;;;;;4973408;28;20189;-78
2022/08/21 06:28:49;;;;;;;17.50;13.10;;;18.80;96.30;;;;;;4973849;28;20222;-77
2022/08/21 06:31:21;;;;;;;13.57;12.13;;;18.80;96.30;;;;;;4973987;28;20272;-78
2022/08/21 06:33:47;;;;;;;15.30;12.87;;;18.60;96.30;;;;;;4974103;28;20163;-80
2022/08/21 06:36:12;;;;;;;13.40;12.07;;;18.70;96.30;;;;;;4972147;28;20556;-78
2022/08/21 06:38:38;;;;;;;24.60;13.80;;;18.70;96.30;;;;;;4959345;28;20650;-75
2022/08/21 06:41:05;;;;;;;16.20;12.33;;;18.70;96.30;;;;;;4964495;28;20198;-75
2022/08/21 06:43:30;;;;;;;15.20;13.60;;;18.50;96.30;;;;;;4973862;28;20416;-75
2022/08/21 06:45:56;;;;;;;16.93;11.83;;;18.40;96.30;;;;;;4973935;28;20414;-76
2022/08/21 06:48:22;;;;;;;18.53;13.50;;;18.50;96.30;;;;;;4973192;28;20577;-74
2022/08/21 06:50:47;;;;;;;16.33;12.50;;;18.50;96.30;;;;;;4967409;28;20190;-75
2022/08/21 06:53:15;;;;;;;18.73;14.17;;;18.50;96.30;;;;;;4954469;29;20210;-75
2022/08/21 06:55:42;;;;;;;13.90;12.70;;;18.50;96.30;;;;;;4954682;29;20653;-75
2022/08/21 06:58:09;;;;;;;18.63;12.97;;;18.50;96.30;;;;;;4953909;29;20426;-75
2022/08/21 07:00:39;;;;;;;16.40;13.97;;;18.50;96.30;;;;;;4954365;28;21005;-74
2022/08/21 07:03:04;;;;;;;15.77;12.47;;;18.50;96.30;;;;;;4954163;29;20414;-74
2022/08/21 07:05:30;;;;;;;16.90;13.27;;;18.40;96.30;;;;;;4954249;29;20421;-77
2022/08/21 07:07:56;;;;;;;14.97;13.37;;;18.30;96.30;;;;;;4953790;29;20263;-75
2022/08/21 07:10:23;;;;;;;20.07;12.20;;;18.20;96.30;;;;;;4954456;28;20728;-76
2022/08/21 07:12:54;;;;;;;14.57;12.73;;;18.10;96.30;;;;;;4954160;29;20409;-75
2022/08/21 07:15:20;;;;;;;15.10;13.33;;;18.10;96.30;;;;;;4954113;29;20914;-75
2022/08/21 07:17:45;;;;;;;17.30;13.93;;;18.20;96.30;;;;;;4953896;29;20426;-77
2022/08/21 07:20:11;;;;;;;14.80;12.77;;;18.20;96.30;;;;;;4953504;28;20215;-76
2022/08/21 07:22:37;;;;;;;14.17;12.67;;;18.10;96.30;;;;;;4953981;29;20226;-76
2022/08/21 07:25:05;;;;;;;19.50;13.07;;;18.20;96.30;;;;;;4958217;28;20190;-76
2022/08/21 07:27:31;;;;;;;15.47;13.33;;;18.30;96.30;;;;;;4981623;28;20935;-76
2022/08/21 07:29:57;;;;;;;15.80;12.97;;;18.40;96.30;;;;;;4980203;28;20457;-76
2022/08/21 07:32:22;;;;;;;18.50;13.53;;;18.40;96.30;;;;;;4957328;28;20445;-76
2022/08/21 07:34:48;;;;;;;15.53;13.93;;;18.40;96.30;;;;;;4966521;28;20553;-76
2022/08/21 07:37:13;;;;;;;15.07;12.37;;;18.40;96.30;;;;;;4959590;28;20638;-76
2022/08/21 07:39:39;;;;;;;26.30;13.40;;;18.30;96.30;;;;;;4964497;28;20178;-75
2022/08/21 07:42:04;;;;;;;14.30;12.80;;;18.20;96.30;;;;;;4969608;28;20251;-77
2022/08/21 07:44:30;;;;;;;16.90;11.73;;;18.20;96.30;;;;;;4977281;28;20174;-75
2022/08/21 07:46:56;;;;;;;12.80;10.80;;;18.20;96.30;;;;;;4971459;28;20193;-77
2022/08/21 07:49:22;;;;;;;14.87;11.60;;;18.30;96.30;;;;;;4976271;28;20198;-77
2022/08/21 07:51:47;;;;;;;16.87;12.63;;;18.50;96.30;;;;;;4978638;28;20999;-77
2022/08/21 07:54:13;;;;;;;12.63;11.37;;;18.70;96.30;;;;;;4978721;28;20178;-77
2022/08/21 07:56:38;;;;;;;12.47;11.10;;;18.90;96.30;;;;;;4978764;28;20641;-77
2022/08/21 07:59:04;;;;;;;26.63;12.00;;;19.10;96.30;;;;;;4975887;28;20186;-76
2022/08/21 08:01:30;;;;;;;14.90;11.87;;;19.20;96.30;;;;;;4976450;28;20237;-77
2022/08/21 08:03:56;;;;;;;12.03;10.87;;;19.20;96.30;;;;;;4974128;28;20189;-76
2022/08/21 08:06:22;;;;;;;16.70;11.53;;;19.20;96.30;;;;;;4972438;28;20417;-76
2022/08/21 08:08:48;;;;;;;15.30;11.70;;;19.30;96.30;;;;;;4975713;28;20197;-77
2022/08/21 08:11:17;;;;;;;12.37;11.00;;;19.30;96.30;;;;;;4976158;28;20968;-76
2022/08/21 08:13:45;;;;;;;12.67;9.80;;;19.50;96.30;;;;;;4969517;28;20174;-77
2022/08/21 08:16:11;;;;;;;14.70;10.90;;;19.60;96.30;;;;;;4956883;28;20906;-77
2022/08/21 08:18:37;;;;;;;12.83;10.73;;;19.60;96.30;;;;;;4956076;29;20505;-76
2022/08/21 08:21:04;;;;;;;14.80;11.13;;;19.80;96.30;;;;;;4961132;28;20285;-77
2022/08/21 08:23:30;;;;;;;11.27;10.17;;;19.90;96.30;;;;;;4967376;28;20501;-75
2022/08/21 08:25:56;;;;;;;11.27;10.07;;;19.70;96.30;;;;;;4976450;28;20417;-73
2022/08/21 08:28:22;;;;;;;10.80;9.63;;;19.70;96.30;;;;;;4973100;28;20417;-73
2022/08/21 08:30:49;;;;;;;11.90;9.33;;;19.60;96.30;;;;;;4969600;28;20969;-73
2022/08/21 08:33:15;;;;;;;15.50;11.20;;;19.50;96.30;;;;;;4963637;28;20189;-74
2022/08/21 08:35:44;;;;;;;18.20;10.37;;;19.20;96.30;;;;;;4967537;28;20893;-72
2022/08/21 08:38:10;;;;;;;12.77;11.47;;;18.90;96.30;;;;;;4965129;28;20426;-73
2022/08/21 08:41:12;;;;;;;13.30;11.10;;;18.90;96.30;;;;;;4959400;28;20439;-75
2022/08/21 08:43:39;;;;;;;15.03;11.33;;;18.80;96.30;;;;;;4956754;28;20214;-75
2022/08/21 08:46:14;;;;;;;17.57;12.60;;;18.80;96.30;;;;;;4969688;28;20445;-74
2022/08/21 08:48:54;;;;;;;16.00;11.67;;;18.80;96.30;;;;;;4979830;28;20842;-75
2022/08/21 08:51:49;;;;;;;18.93;11.57;;;19.00;96.30;;;;;;4977408;28;20437;-75
2022/08/21 08:54:21;;;;;;;15.60;11.00;;;19.20;96.30;;;;;;4974806;28;20402;-75
2022/08/21 08:56:47;;;;;;;14.53;10.60;;;19.40;96.30;;;;;;4964989;28;20733;-74
2022/08/21 08:59:20;;;;;;;16.53;9.30;;;19.70;96.30;;;;;;4966154;28;20413;-75
2022/08/21 09:01:46;;;;;;;12.93;9.13;;;19.80;96.30;;;;;;4965340;28;20986;-75
2022/08/21 09:04:13;;;;;;;9.50;8.50;;;20.00;96.30;;;;;;4966947;28;20417;-74
2022/08/21 09:06:57;;;;;;;10.60;7.77;;;20.40;96.30;;;;;;4971247;28;20174;-75
2022/08/21 09:10:02;;;;;;;7.97;7.17;;;20.40;96.30;;;;;;4965621;28;20982;-75
2022/08/21 09:12:33;;;;;;;9.97;6.80;;;20.60;96.30;;;;;;4965554;28;20906;-75
2022/08/21 09:15:16;;;;;;;6.10;5.50;;;20.70;96.30;;;;;;4964211;28;20523;-75
2022/08/21 09:17:52;;;;;;;7.80;7.00;;;20.60;96.30;;;;;;4964401;28;20518;-75
2022/08/21 09:20:29;;;;;;;8.63;5.70;;;20.50;96.30;;;;;;4964405;28;20421;-75
2022/08/21 09:23:23;;;;;;;7.20;6.10;;;20.40;96.30;;;;;;4973516;28;20421;-74
2022/08/21 09:26:12;;;;;;;10.67;7.10;;;20.50;96.30;;;;;;4957830;28;20869;-74
2022/08/21 09:28:40;;;;;;;9.50;6.87;;;20.60;96.30;;;;;;4971209;28;21029;-74
2022/08/21 09:31:25;;;;;;;6.67;5.43;;;20.50;96.30;;;;;;4971954;28;20930;-72
2022/08/21 09:33:58;;;;;;;6.03;4.87;;;20.70;96.30;;;;;;4947358;29;20445;-74
2022/08/21 09:36:28;;;;;;;8.73;4.70;;;20.90;96.30;;;;;;4972136;28;20441;-78
2022/08/21 09:38:55;;;;;;;5.13;4.57;;;20.70;96.30;;;;;;4974162;28;20485;-77
2022/08/21 09:41:28;;;;;;;6.80;4.60;;;20.70;96.30;;;;;;4957184;28;20540;-78
2022/08/21 09:43:54;;;;;;;14.30;4.70;;;20.50;96.30;;;;;;4970194;28;20521;-77
2022/08/21 09:46:23;;;;;;;5.83;4.67;;;20.80;96.30;;;;;;4969393;28;20520;-77
2022/08/21 09:48:51;;;;;;;12.77;4.87;;;21.30;96.30;;;;;;4971967;28;20202;-78
2022/08/21 09:51:27;;;;;;;7.20;4.97;;;21.50;96.30;;;;;;4956492;28;20453;-78
2022/08/21 09:54:10;;;;;;;5.87;3.93;;;21.60;96.30;;;;;;4971700;28;20445;-76
2022/08/21 09:59:32;;;;;;;7.73;4.00;;;21.80;96.30;;;;;;4972581;28;20742;-77
2022/08/21 10:02:01;;;;;;;8.73;3.50;;;21.70;96.30;;;;;;4972796;28;20445;-78
2022/08/21 10:04:33;;;;;;;5.03;3.63;;;21.60;96.30;;;;;;4948975;28;20516;-79
2022/08/21 10:07:10;;;;;;;11.93;3.20;;;21.70;96.30;;;;;;4960994;28;20410;-80
2022/08/21 10:09:36;;;;;;;9.43;3.30;;;22.50;96.30;;;;;;4954795;29;20552;-76
2022/08/21 10:12:24;;;;;;;5.90;2.80;;;22.80;96.30;;;;;;4955440;29;20534;-78
2022/08/21 10:15:19;;;;;;;13.33;2.43;;;22.60;96.30;;;;;;4937895;29;20337;-78
2022/08/21 10:17:57;;;;;;;6.13;2.87;;;22.80;96.30;;;;;;4954425;29;20421;-78
2022/08/21 10:36:35;;;;;;;3.77;2.70;;;23.70;96.30;;;;;;5383697;23;20500;-76
2022/08/21 10:39:13;;;;;;;9.40;2.73;;;23.50;96.30;;;;;;4993081;28;20743;-76
2022/08/21 10:42:15;;;;;;;4.67;2.20;;;23.80;96.30;;;;;;4975529;28;20445;-76
2022/08/21 10:44:48;;;;;;;5.20;2.53;;;24.00;96.30;;;;;;4993332;28;20419;-76
2022/08/21 10:47:31;;;;;;;5.80;2.70;;;24.40;96.30;;;;;;4993129;28;20496;-76
2022/08/21 10:50:23;;;;;;;4.00;2.27;;;23.90;96.30;;;;;;4992983;28;20985;-75
2022/08/21 10:53:07;;;;;;;6.23;2.60;;;24.70;96.30;;;;;;4979952;28;20884;-76
2022/08/21 10:55:39;;;;;;;6.90;2.10;;;24.80;94.60;;;;;;4992910;28;20420;-76
2022/08/21 10:58:12;;;;;;;8.10;2.50;;;25.40;96.30;;;;;;4992669;28;20416;-75
2022/08/21 11:00:49;;;;;;;10.20;2.33;;;25.60;93.20;;;;;;4975479;28;20452;-75
2022/08/21 11:03:21;;;;;;;8.80;2.63;;;25.40;91.90;;;;;;4992880;28;20420;-75
2022/08/21 11:05:51;;;;;;;6.80;2.20;;;25.80;95.60;;;;;;4992808;28;20409;-75
2022/08/21 11:08:30;;;;;;;4.93;2.30;;;25.40;92.10;;;;;;4992556;28;20901;-76
2022/08/21 11:11:07;;;;;;;4.93;1.83;;;25.70;93.50;;;;;;4973779;28;20848;-77
2022/08/21 11:13:43;;;;;;;11.20;2.83;;;25.40;92.70;;;;;;4973106;28;20449;-77
2022/08/21 11:16:21;;;;;;;6.70;2.23;;;25.10;90.80;;;;;;4973350;28;20427;-77
2022/08/21 11:19:01;;;;;;;7.50;2.13;;;25.50;96.30;;;;;;4973056;28;20417;-78
2022/08/21 11:21:42;;;;;;;11.30;2.50;;;25.20;95.00;;;;;;4973338;28;20516;-77
2022/08/21 11:24:26;;;;;;;5.83;2.10;;;25.30;92.90;;;;;;4973264;28;20414;-77
2022/08/21 11:27:18;;;;;;;8.10;2.70;;;25.60;92.70;;;;;;4973195;28;20497;-77
2022/08/21 11:29:47;;;;;;;10.20;1.87;;;24.60;91.10;;;;;;4955704;28;20568;-77
2022/08/21 11:32:54;;;;;;;5.20;1.70;;;23.70;95.00;;;;;;4973082;28;20433;-77
2022/08/21 11:35:34;;;;;;;5.97;2.40;;;23.30;95.60;;;;;;4973085;28;20512;-77
2022/08/21 11:38:27;;;;;;;10.03;1.80;;;23.30;96.30;;;;;;4972936;28;20408;-77
2022/08/21 11:41:29;;;;;;;6.17;2.40;;;23.10;96.30;;;;;;4981301;28;20465;-77
2022/08/21 11:44:18;;;;;;;6.93;2.40;;;23.50;96.30;;;;;;4894559;29;20913;-77
2022/08/21 11:46:53;;;;;;;5.30;2.00;;;24.20;95.00;;;;;;4988609;28;20417;-77
2022/08/21 11:49:28;;;;;;;7.40;2.83;;;24.40;96.30;;;;;;4974759;28;20451;-77
2022/08/21 11:52:04;;;;;;;9.30;1.90;;;24.30;92.80;;;;;;4992454;28;20420;-77
2022/08/21 11:54:55;;;;;;;3.57;1.70;;;23.90;95.10;;;;;;4992342;28;20404;-77
2022/08/21 11:57:44;;;;;;;6.37;2.17;;;23.20;96.30;;;;;;4993843;28;20455;-77
2022/08/21 12:00:20;;;;;;;6.20;2.10;;;22.90;96.30;;;;;;4978981;28;20959;-78
2022/08/21 12:02:50;;;;;;;5.47;2.00;;;23.10;96.30;;;;;;4995939;28;20404;-78
2022/08/21 12:05:33;;;;;;;7.23;2.13;;;23.50;96.30;;;;;;4992834;28;20948;-77
2022/08/21 12:08:31;;;;;;;4.27;1.90;;;23.10;94.50;;;;;;4992088;28;20413;-77
2022/08/21 12:11:09;;;;;;;7.47;1.90;;;23.40;96.30;;;;;;4973143;28;20469;-77
2022/08/21 12:14:04;;;;;;;5.50;2.37;;;23.90;96.00;;;;;;4972931;28;20417;-77
2022/08/21 12:16:35;;;;;;;3.83;1.60;;;23.60;96.30;;;;;;4972843;28;20409;-77
2022/08/21 12:19:19;;;;;;;5.83;1.87;;;23.80;95.50;;;;;;4972498;28;20452;-77
2022/08/21 12:21:58;;;;;;;4.30;2.17;;;23.20;94.00;;;;;;4972789;28;20448;-77
2022/08/21 12:24:26;;;;;;;4.60;2.07;;;23.10;95.50;;;;;;4973603;28;20424;-76
2022/08/21 12:26:56;;;;;;;3.30;1.67;;;23.00;96.10;;;;;;4976313;28;20457;-77
2022/08/21 12:29:25;;;;;;;4.97;2.20;;;23.40;96.30;;;;;;4975874;28;20487;-77
2022/08/21 12:32:05;;;;;;;8.43;2.03;;;23.20;96.30;;;;;;4976139;28;20803;-77
2022/08/21 12:34:54;;;;;;;3.30;2.30;;;23.00;96.30;;;;;;4976179;28;20417;-76
2022/08/21 12:37:28;;;;;;;2.77;1.70;;;23.10;96.30;;;;;;4958211;28;20437;-77
2022/08/21 12:39:59;;;;;;;7.10;2.10;;;23.30;96.10;;;;;;4976197;28;20788;-77
2022/08/21 12:42:37;;;;;;;3.93;2.20;;;23.00;94.80;;;;;;4995439;28;20909;-77
2022/08/21 12:45:13;;;;;;;6.07;2.27;;;23.20;96.30;;;;;;4995500;28;20423;-77
2022/08/21 12:47:51;;;;;;;9.00;2.73;;;23.10;95.10;;;;;;4995442;28;20431;-77
2022/08/21 12:50:57;;;;;;;4.63;1.93;;;23.10;96.30;;;;;;4995180;28;21081;-77
2022/08/21 12:53:41;;;;;;;5.37;2.13;;;23.20;96.30;;;;;;4994626;28;20523;-76
2022/08/21 12:56:12;;;;;;;6.50;2.10;;;22.90;96.30;;;;;;4977682;28;20420;-76
2022/08/21 12:58:45;;;;;;;4.63;2.17;;;22.70;96.30;;;;;;4994769;28;20416;-76
2022/08/21 13:01:27;;;;;;;5.93;1.97;;;23.20;96.30;;;;;;4995178;28;20420;-77
2022/08/21 13:03:56;;;;;;;13.77;2.40;;;22.90;96.30;;;;;;4977644;28;20417;-76
2022/08/21 13:06:23;;;;;;;9.67;2.00;;;23.10;96.30;;;;;;4995000;28;20443;-76
2022/08/21 13:08:54;;;;;;;5.43;1.87;;;23.30;96.30;;;;;;4992635;28;20452;-77
2022/08/21 13:11:23;;;;;;;4.73;2.17;;;23.50;96.30;;;;;;4975454;28;20525;-76
2022/08/21 13:13:50;;;;;;;5.83;1.93;;;23.90;96.30;;;;;;4975502;28;20916;-77
2022/08/21 13:16:24;;;;;;;5.80;2.00;;;23.70;94.10;;;;;;4975354;28;20916;-76
2022/08/21 13:19:05;;;;;;;4.43;2.07;;;24.60;96.00;;;;;;4975171;28;20429;-77
2022/08/21 13:21:33;;;;;;;4.40;1.73;;;24.30;92.00;;;;;;4975528;28;20444;-75
2022/08/21 13:24:18;;;;;;;12.00;2.73;;;24.60;93.20;;;;;;4971297;28;20454;-75
2022/08/21 13:26:44;;;;;;;4.00;1.70;;;25.10;90.60;;;;;;4986396;28;20471;-76
2022/08/21 13:29:11;;;;;;;7.97;2.27;;;24.90;89.60;;;;;;4976523;28;21058;-75
2022/08/21 13:31:42;;;;;;;7.97;2.30;;;23.90;91.50;;;;;;4994386;28;20428;-76
2022/08/21 13:34:10;;;;;;;4.50;1.90;;;23.50;93.50;;;;;;4977217;28;20436;-75
2022/08/21 13:36:40;;;;;;;5.27;2.00;;;23.70;94.30;;;;;;4994306;28;20444;-74
2022/08/21 13:39:09;;;;;;;7.83;2.30;;;23.50;96.30;;;;;;4994878;28;20917;-74
2022/08/21 13:41:38;;;;;;;5.70;2.00;;;23.80;94.90;;;;;;4973326;28;20437;-77
2022/08/21 13:44:16;;;;;;;6.00;2.10;;;23.80;94.60;;;;;;4977228;28;20420;-74
2022/08/21 13:46:43;;;;;;;5.30;2.20;;;24.80;92.60;;;;;;4994360;28;20487;-74
2022/08/21 13:49:10;;;;;;;6.20;1.90;;;24.90;91.80;;;;;;4994246;28;20449;-77
2022/08/21 13:51:36;;;;;;;4.80;2.53;;;24.40;90.10;;;;;;4994405;28;20943;-75
2022/08/21 13:54:13;;;;;;;7.37;2.77;;;24.30;90.70;;;;;;4994338;28;20492;-74
2022/08/21 13:56:45;;;;;;;7.17;1.90;;;24.30;93.10;;;;;;4993990;28;20421;-74
2022/08/21 13:59:22;;;;;;;9.83;2.20;;;25.20;93.00;;;;;;4993862;28;20417;-75
2022/08/21 14:01:58;;;;;;;5.90;1.73;;;25.10;89.00;;;;;;4985206;28;20947;-75
2022/08/21 14:04:37;;;;;;;14.70;2.03;;;24.60;92.80;;;;;;4969755;28;20935;-78
2022/08/21 14:07:15;;;;;;;3.13;1.70;;;24.30;93.80;;;;;;4980817;28;20894;-73
2022/08/21 14:09:42;;;;;;;4.67;2.20;;;24.40;92.10;;;;;;4977422;28;20469;-75
2022/08/21 14:12:37;;;;;;;12.40;2.70;;;24.90;91.90;;;;;;4964320;28;20533;-73
2022/08/21 14:15:05;;;;;;;7.77;2.10;;;24.60;92.80;;;;;;4962503;28;20980;-76
2022/08/21 14:17:41;;;;;;;10.40;2.10;;;24.60;91.40;;;;;;4968539;28;20773;-74
2022/08/21 14:20:09;;;;;;;6.07;1.80;;;24.00;90.30;;;;;;4953954;29;20430;-74
2022/08/21 14:22:47;;;;;;;4.03;2.50;;;23.90;95.30;;;;;;4954240;29;20799;-75
2022/08/21 14:25:30;;;;;;;6.07;2.00;;;23.90;94.00;;;;;;4936873;29;20911;-78
2022/08/21 14:28:22;;;;;;;4.50;2.10;;;24.00;92.40;;;;;;4953977;29;20929;-75
2022/08/21 14:30:48;;;;;;;5.23;1.90;;;23.90;91.40;;;;;;4954681;29;20438;-74
2022/08/21 14:33:31;;;;;;;10.80;2.00;;;24.10;95.90;;;;;;4954713;29;20403;-74
2022/08/21 14:35:57;;;;;;;3.60;1.60;;;24.00;93.50;;;;;;4957397;28;21030;-74
2022/08/21 14:38:24;;;;;;;6.67;2.10;;;23.50;91.80;;;;;;4973914;28;20903;-74
2022/08/21 14:40:53;;;;;;;4.70;2.00;;;24.10;94.10;;;;;;4973742;28;20257;-74
2022/08/21 14:43:19;;;;;;;5.70;2.17;;;24.60;93.10;;;;;;4969582;28;20469;-74
2022/08/21 14:45:45;;;;;;;6.13;2.30;;;24.60;93.30;;;;;;4937401;29;20422;-74
2022/08/21 14:48:11;;;;;;;5.10;1.90;;;24.50;90.30;;;;;;4953825;28;20415;-75
2022/08/21 14:50:37;;;;;;;5.70;1.67;;;23.90;92.50;;;;;;4954289;29;20202;-74
2022/08/21 14:53:03;;;;;;;6.10;2.07;;;23.60;92.60;;;;;;4954245;29;20195;-75
2022/08/21 14:55:30;;;;;;;7.00;2.33;;;23.10;95.00;;;;;;4954300;29;20258;-75
2022/08/21 14:57:57;;;;;;;5.63;2.20;;;22.80;96.30;;;;;;4954138;29;20415;-75
2022/08/21 15:00:24;;;;;;;4.93;1.83;;;22.80;96.30;;;;;;4954218;29;20470;-75
2022/08/21 15:02:51;;;;;;;3.10;1.90;;;22.80;96.00;;;;;;4954229;29;20407;-76
2022/08/21 15:05:17;;;;;;;9.93;2.30;;;22.70;95.80;;;;;;4956821;28;20423;-76
2022/08/21 15:07:44;;;;;;;7.93;2.03;;;22.70;95.40;;;;;;4967099;28;20442;-75
2022/08/21 15:10:10;;;;;;;4.70;1.70;;;22.60;94.50;;;;;;4982602;28;20508;-77
2022/08/21 15:12:36;;;;;;;5.83;2.20;;;22.70;94.80;;;;;;4985050;28;20441;-75
2022/08/21 15:15:05;;;;;;;4.57;1.70;;;22.40;96.30;;;;;;4982053;28;20407;-74
2022/08/21 15:17:30;;;;;;;16.33;8.60;;;22.10;96.30;;;;;;4966203;28;20209;-74
2022/08/21 15:19:56;;;;;;;47.90;29.57;;;22.00;96.30;;;;;;4968216;28;20483;-74
2022/08/21 15:22:21;;;;;;;7.73;2.90;;;22.00;96.30;;;;;;4982155;28;20202;-74
2022/08/21 15:24:47;;;;;;;6.83;2.13;;;22.00;96.30;;;;;;4986879;28;20529;-74
2022/08/21 15:27:14;;;;;;;6.00;1.50;;;21.70;96.30;;;;;;4970121;28;20197;-73
2022/08/21 15:29:41;;;;;;;8.57;1.90;;;21.70;96.30;;;;;;4970135;28;20297;-75
2022/08/21 15:32:20;;;;;;;3.53;1.70;;;21.90;96.30;;;;;;4964150;28;20438;-73
2022/08/21 15:34:45;;;;;;;7.07;2.13;;;21.90;95.90;;;;;;4965954;28;20423;-73
2022/08/21 15:37:11;;;;;;;5.17;2.57;;;21.80;96.20;;;;;;4986649;28;20486;-74
2022/08/21 15:39:36;;;;;;;5.07;1.90;;;21.50;96.20;;;;;;4975775;28;20666;-73
2022/08/21 15:42:03;;;;;;;3.53;1.63;;;21.60;96.30;;;;;;4983131;28;20196;-73
2022/08/21 15:44:29;;;;;;;4.37;2.30;;;21.50;96.30;;;;;;4983653;28;20661;-73
2022/08/21 15:46:55;;;;;;;8.70;2.30;;;21.40;96.10;;;;;;4977659;28;20413;-73
2022/08/21 15:49:24;;;;;;;8.00;2.23;;;21.40;96.30;;;;;;4973006;28;20540;-72
2022/08/21 15:51:50;;;;;;;3.87;1.67;;;21.70;96.30;;;;;;4977246;28;20437;-76
2022/08/21 15:54:15;;;;;;;4.43;1.30;;;21.70;96.30;;;;;;4982651;28;20498;-76
2022/08/21 15:56:46;;;;;;;4.90;2.70;;;21.90;96.30;;;;;;4985264;28;20189;-75
2022/08/21 15:59:18;;;;;;;4.33;1.50;;;21.60;96.30;;;;;;4977919;28;20532;-76
2022/08/21 16:01:45;;;;;;;8.00;1.70;;;21.40;96.30;;;;;;4990691;28;20441;-77
2022/08/21 16:04:19;;;;;;;4.03;1.53;;;21.20;96.30;;;;;;4976477;28;20428;-74
2022/08/21 16:06:44;;;;;;;5.90;1.90;;;21.50;96.30;;;;;;4959136;28;20521;-74
2022/08/21 16:09:10;;;;;;;5.47;2.10;;;21.80;95.40;;;;;;4976105;28;20888;-74
2022/08/21 16:11:35;;;;;;;4.50;1.83;;;21.90;96.30;;;;;;4976439;28;20202;-74
2022/08/21 16:14:01;;;;;;;6.40;2.93;;;21.90;96.30;;;;;;4983729;28;20185;-74
2022/08/21 16:16:28;;;;;;;5.67;1.63;;;21.60;96.30;;;;;;4995818;28;20224;-77
2022/08/21 16:18:53;;;;;;;9.03;1.70;;;21.60;96.30;;;;;;4995309;28;20181;-75
2022/08/21 16:21:19;;;;;;;27.07;19.00;;;21.90;95.40;;;;;;4995613;28;20436;-76
2022/08/21 16:23:44;;;;;;;6.93;2.20;;;22.20;95.70;;;;;;4988483;28;20556;-74
2022/08/21 16:26:13;;;;;;;6.00;1.87;;;21.90;94.30;;;;;;4995137;28;20181;-74
2022/08/21 16:28:42;;;;;;;6.07;1.47;;;21.80;94.70;;;;;;4994691;28;20170;-74
2022/08/21 16:31:08;;;;;;;6.70;2.00;;;21.70;96.30;;;;;;4995639;28;20439;-75
2022/08/21 16:33:36;;;;;;;8.97;2.37;;;21.80;95.50;;;;;;4995381;28;20401;-76
2022/08/21 16:36:02;;;;;;;5.53;2.67;;;21.70;96.20;;;;;;4997416;28;20443;-76
2022/08/21 16:38:29;;;;;;;8.67;1.83;;;21.80;96.30;;;;;;4980258;28;20444;-77
2022/08/21 16:40:55;;;;;;;8.37;2.00;;;21.60;96.30;;;;;;4997434;28;20424;-77
2022/08/21 16:43:27;;;;;;;7.83;1.63;;;21.60;96.30;;;;;;4996629;28;20499;-77
2022/08/21 16:45:53;;;;;;;5.93;1.60;;;21.60;96.20;;;;;;4995452;28;20173;-77
2022/08/21 16:48:18;;;;;;;4.93;1.73;;;21.60;95.30;;;;;;4986396;28;20913;-78
2022/08/21 16:50:44;;;;;;;10.97;3.70;;;21.50;95.50;;;;;;4966276;28;20461;-77
2022/08/21 16:53:10;;;;;;;10.20;2.30;;;21.20;95.70;;;;;;4967078;28;20651;-77
2022/08/21 16:55:37;;;;;;;8.77;2.10;;;21.20;96.20;;;;;;4957342;28;20183;-77
2022/08/21 16:58:19;;;;;;;2.60;1.33;;;21.30;96.30;;;;;;4957009;29;20266;-78
2022/08/21 17:00:45;;;;;;;9.30;2.60;;;21.40;96.30;;;;;;4956943;29;20441;-77
2022/08/21 17:03:15;;;;;;;7.63;1.97;;;21.00;96.20;;;;;;4958192;28;20786;-77
2022/08/21 17:05:41;;;;;;;3.90;1.67;;;20.90;96.30;;;;;;4960116;29;20178;-78
2022/08/21 17:08:10;;;;;;;5.20;1.90;;;21.00;96.30;;;;;;4959420;29;20425;-78
2022/08/21 17:10:36;;;;;;;5.63;1.73;;;21.10;96.30;;;;;;4972931;28;20464;-77
2022/08/21 17:13:02;;;;;;;10.13;1.83;;;21.00;96.30;;;;;;4978447;28;20408;-76
2022/08/21 17:15:36;;;;;;;10.90;1.97;;;20.70;96.30;;;;;;4992261;28;20420;-76
2022/08/21 17:18:04;;;;;;;6.00;1.50;;;20.80;96.30;;;;;;4994220;28;20413;-76